Time;durP1;ratioP1;P1;durP2;ratioP2;P2;SDS_P1;SDS_P2;PMS_P1;PMS_P2;Temp;Humidity;BMP_temperature;BMP_pressure;BME280_temperature;BME280_humidity;BME280_pressure;Samples;Min_cycle;Max_cycle;Signal;HPM_P1;HPM_P2
2022/11/13 00:00:35;;;;;;;18.33;9.50;;;7.40;99.90;;;;;;5041305;28;20128;-42
2022/11/13 00:03:01;;;;;;;11.45;7.40;;;7.50;99.90;;;;;;5042218;28;20072;-39
2022/11/13 00:05:26;;;;;;;10.27;6.90;;;7.50;99.90;;;;;;5043600;28;20040;-48
2022/11/13 00:07:52;;;;;;;11.13;6.97;;;7.60;99.90;;;;;;5045906;28;20053;-43
2022/11/13 00:10:18;;;;;;;12.45;7.30;;;7.60;99.90;;;;;;5042279;28;20044;-44
2022/11/13 00:12:44;;;;;;;13.45;7.78;;;7.60;99.90;;;;;;5044827;28;20063;-48
2022/11/13 00:15:09;;;;;;;11.55;7.40;;;7.70;99.90;;;;;;5041318;28;20037;-43
2022/11/13 00:17:35;;;;;;;10.73;7.20;;;7.70;99.90;;;;;;5043775;28;20102;-43
2022/11/13 00:20:01;;;;;;;11.77;7.13;;;7.60;99.90;;;;;;5046851;28;20033;-47
2022/11/13 00:22:27;;;;;;;11.93;6.85;;;7.70;99.90;;;;;;5050955;28;20114;-41
2022/11/13 00:24:53;;;;;;;9.02;6.15;;;7.60;99.90;;;;;;5043270;28;20502;-44
2022/11/13 00:27:19;;;;;;;10.80;7.03;;;7.60;99.90;;;;;;5049162;28;20159;-46
2022/11/13 00:29:44;;;;;;;10.60;6.88;;;7.60;99.90;;;;;;5040686;28;20418;-43
2022/11/13 00:32:10;;;;;;;13.48;7.97;;;7.60;99.90;;;;;;5037411;28;20052;-48
2022/11/13 00:34:36;;;;;;;13.35;7.57;;;7.50;99.90;;;;;;5044143;28;20731;-43
2022/11/13 00:37:01;;;;;;;14.07;8.30;;;7.60;99.90;;;;;;5040809;28;20463;-44
2022/11/13 00:39:27;;;;;;;12.18;8.43;;;7.50;99.90;;;;;;5042634;28;20786;-48
2022/11/13 00:41:53;;;;;;;13.02;7.57;;;7.50;99.90;;;;;;5039131;28;20088;-44
2022/11/13 00:44:18;;;;;;;11.48;7.70;;;7.50;99.90;;;;;;5046529;28;20048;-44
2022/11/13 00:46:44;;;;;;;12.95;9.07;;;7.60;99.90;;;;;;5047114;28;20074;-48
2022/11/13 00:49:10;;;;;;;10.55;7.35;;;7.60;99.90;;;;;;5043565;28;20045;-44
2022/11/13 00:51:35;;;;;;;12.13;8.30;;;7.60;99.90;;;;;;5044735;28;20045;-46
2022/11/13 00:54:01;;;;;;;10.00;7.18;;;7.60;99.90;;;;;;5043685;28;20025;-38
2022/11/13 00:56:27;;;;;;;12.90;8.38;;;7.60;99.90;;;;;;5043565;28;20041;-46
2022/11/13 00:58:52;;;;;;;12.13;7.15;;;7.60;99.90;;;;;;5045141;28;20064;-42
2022/11/13 01:01:19;;;;;;;10.43;7.38;;;7.60;99.90;;;;;;5047366;28;20041;-43
2022/11/13 01:03:45;;;;;;;9.68;6.40;;;7.60;99.90;;;;;;5041890;28;20041;-44
2022/11/13 01:06:20;;;;;;;9.63;6.53;;;7.60;99.90;;;;;;5042438;28;20087;-47
2022/11/13 01:08:46;;;;;;;11.25;7.35;;;7.60;99.90;;;;;;5048249;28;20098;-41
2022/11/13 01:11:15;;;;;;;11.63;8.35;;;7.60;99.90;;;;;;5040513;28;20037;-47
2022/11/13 01:13:42;;;;;;;12.38;7.88;;;7.60;99.90;;;;;;5047123;28;20033;-45
2022/11/13 01:16:09;;;;;;;13.90;7.47;;;7.60;99.90;;;;;;5046866;28;20049;-48
2022/11/13 01:18:35;;;;;;;12.63;7.95;;;7.60;99.90;;;;;;5048861;28;20079;-41
2022/11/13 01:21:14;;;;;;;11.02;7.95;;;7.60;99.90;;;;;;5048851;28;20083;-44
2022/11/13 01:23:40;;;;;;;9.77;6.90;;;7.60;99.90;;;;;;5044006;28;20052;-43
2022/11/13 01:26:13;;;;;;;10.85;7.30;;;7.60;99.90;;;;;;5049074;28;20033;-43
2022/11/13 01:28:42;;;;;;;13.15;6.93;;;7.60;99.90;;;;;;5041743;28;20539;-43
2022/11/13 01:31:16;;;;;;;10.90;6.95;;;7.60;99.90;;;;;;5047182;28;20072;-43
2022/11/13 01:33:43;;;;;;;11.77;7.10;;;7.60;99.90;;;;;;5044144;28;20080;-41
2022/11/13 01:36:15;;;;;;;13.18;8.00;;;7.60;99.90;;;;;;5050408;28;20033;-43
2022/11/13 01:38:41;;;;;;;12.27;7.13;;;7.60;99.90;;;;;;5046275;28;20386;-45
2022/11/13 01:41:09;;;;;;;10.07;6.03;;;7.60;99.90;;;;;;5050208;28;20044;-43
2022/11/13 01:43:37;;;;;;;10.77;6.47;;;7.60;99.90;;;;;;5039117;28;20149;-45
2022/11/13 01:46:11;;;;;;;9.02;5.82;;;7.60;99.90;;;;;;5036753;28;20513;-46
2022/11/13 01:48:44;;;;;;;10.07;6.03;;;7.60;99.90;;;;;;5041652;28;20045;-40
2022/11/13 01:51:21;;;;;;;;;;;7.60;99.90;;;;;;5047642;28;20041;-43
2022/11/13 01:53:47;;;;;;;8.82;5.80;;;7.60;99.90;;;;;;5043023;28;19921;-47
2022/11/13 01:56:14;;;;;;;12.15;6.65;;;7.50;99.90;;;;;;5040007;28;20029;-44
2022/11/13 01:58:43;;;;;;;10.82;6.57;;;7.50;99.90;;;;;;5040176;28;20128;-41
2022/11/13 02:01:08;;;;;;;11.48;6.88;;;7.50;99.90;;;;;;5044463;28;20048;-46
2022/11/13 02:03:34;;;;;;;9.25;5.43;;;7.50;99.90;;;;;;5048816;28;20448;-46
2022/11/13 02:06:01;;;;;;;11.18;6.53;;;7.50;99.90;;;;;;5049976;28;20491;-40
2022/11/13 02:08:27;;;;;;;10.23;6.10;;;7.50;99.90;;;;;;5045679;28;20406;-48
2022/11/13 02:10:53;;;;;;;9.05;6.03;;;7.40;99.90;;;;;;5044252;28;20041;-46
2022/11/13 02:13:20;;;;;;;8.57;5.57;;;7.40;99.90;;;;;;5061016;28;20494;-41
2022/11/13 02:15:47;;;;;;;9.07;6.00;;;7.40;99.90;;;;;;5040068;28;20044;-41
2022/11/13 02:18:15;;;;;;;9.77;5.47;;;7.30;99.90;;;;;;5043520;28;20585;-45
2022/11/13 02:21:05;;;;;;;10.40;5.30;;;7.30;99.90;;;;;;5049220;28;20549;-45
2022/11/13 02:23:51;;;;;;;9.82;5.68;;;7.20;99.90;;;;;;5028501;28;20099;-43
2022/11/13 02:26:19;;;;;;;9.43;5.85;;;7.20;99.90;;;;;;5039717;28;20045;-48
2022/11/13 02:28:45;;;;;;;10.50;6.07;;;7.20;99.90;;;;;;5045001;28;20066;-44
2022/11/13 02:31:12;;;;;;;10.15;6.25;;;7.20;99.90;;;;;;5045683;28;20048;-46
2022/11/13 02:33:38;;;;;;;8.65;5.10;;;7.10;99.90;;;;;;5045380;28;20037;-42
2022/11/13 02:36:05;;;;;;;9.88;5.60;;;7.10;99.90;;;;;;5049296;28;20444;-44
2022/11/13 02:38:33;;;;;;;9.00;5.53;;;7.10;99.90;;;;;;5046110;28;20043;-45
2022/11/13 02:40:59;;;;;;;8.88;5.32;;;7.10;99.90;;;;;;5047656;28;20441;-46
2022/11/13 02:43:24;;;;;;;8.63;5.80;;;7.00;99.90;;;;;;5046639;28;20052;-44
2022/11/13 02:45:50;;;;;;;8.65;5.40;;;7.00;99.90;;;;;;5047002;28;20494;-45
2022/11/13 02:48:16;;;;;;;9.27;5.72;;;7.00;99.90;;;;;;5044628;28;20098;-47
2022/11/13 02:50:42;;;;;;;11.45;6.10;;;7.00;99.90;;;;;;5047688;28;20041;-43
2022/11/13 02:53:08;;;;;;;9.13;5.63;;;7.00;99.90;;;;;;5044581;28;20094;-47
2022/11/13 02:55:33;;;;;;;9.38;5.80;;;7.00;99.90;;;;;;5047449;28;20120;-43
2022/11/13 02:57:59;;;;;;;11.77;6.55;;;7.00;99.90;;;;;;5044215;28;20572;-43
2022/11/13 03:00:25;;;;;;;10.10;5.93;;;7.00;99.90;;;;;;5043555;28;20045;-39
2022/11/13 03:02:50;;;;;;;9.68;6.57;;;6.90;99.90;;;;;;5040224;28;20037;-44
2022/11/13 03:05:16;;;;;;;11.75;6.38;;;6.90;99.90;;;;;;5048228;28;20075;-47
2022/11/13 03:07:42;;;;;;;9.02;5.93;;;6.90;99.90;;;;;;5045829;28;20394;-45
2022/11/13 03:10:09;;;;;;;9.55;5.63;;;6.90;99.90;;;;;;5047633;28;20037;-45
2022/11/13 03:12:35;;;;;;;9.10;6.13;;;6.90;99.90;;;;;;5049558;28;20037;-44
2022/11/13 03:15:01;;;;;;;10.10;5.47;;;6.90;99.90;;;;;;5049575;28;20118;-40
2022/11/13 03:17:30;;;;;;;10.23;6.10;;;6.90;99.90;;;;;;5050803;28;20064;-43
2022/11/13 03:19:56;;;;;;;11.43;5.65;;;6.90;99.90;;;;;;5048401;28;20041;-47
2022/11/13 03:22:21;;;;;;;9.65;5.10;;;6.90;99.90;;;;;;5052299;28;20045;-43
2022/11/13 03:24:47;;;;;;;10.07;5.97;;;6.90;99.90;;;;;;5048462;28;20094;-47
2022/11/13 03:27:13;;;;;;;9.38;5.45;;;6.90;99.90;;;;;;5044585;28;20460;-46
2022/11/13 03:29:38;;;;;;;12.00;6.55;;;6.90;99.90;;;;;;5055305;28;20168;-46
2022/11/13 03:32:04;;;;;;;8.93;5.72;;;6.90;99.90;;;;;;5051554;28;20056;-44
2022/11/13 03:34:30;;;;;;;9.30;5.65;;;6.80;99.90;;;;;;5049341;28;20037;-47
2022/11/13 03:36:55;;;;;;;7.63;5.05;;;6.80;99.90;;;;;;5052470;28;20036;-45
2022/11/13 03:39:21;;;;;;;8.65;5.63;;;6.80;99.90;;;;;;5051906;28;20037;-44
2022/11/13 03:41:47;;;;;;;9.65;5.47;;;6.80;99.90;;;;;;5053330;28;20043;-46
2022/11/13 03:44:12;;;;;;;11.60;6.22;;;6.80;99.90;;;;;;5052246;28;20029;-46
2022/11/13 03:46:38;;;;;;;9.43;5.60;;;6.80;99.90;;;;;;5051387;28;20045;-48
2022/11/13 03:49:04;;;;;;;9.80;5.78;;;6.70;99.90;;;;;;5048323;28;20437;-45
2022/11/13 03:51:29;;;;;;;7.85;5.70;;;6.70;99.90;;;;;;5043475;28;20037;-43
2022/11/13 03:53:55;;;;;;;16.02;7.03;;;6.70;99.90;;;;;;5054465;28;20039;-43
2022/11/13 03:56:21;;;;;;;9.85;5.88;;;6.70;99.90;;;;;;5052576;28;20112;-42
2022/11/13 03:58:46;;;;;;;9.27;5.97;;;6.60;99.90;;;;;;5047390;28;20037;-43
2022/11/13 04:01:12;;;;;;;8.75;6.07;;;6.60;99.90;;;;;;5050595;28;20071;-44
2022/11/13 04:03:37;;;;;;;10.68;6.68;;;6.60;99.90;;;;;;5047147;28;20131;-45
2022/11/13 04:06:03;;;;;;;9.40;6.13;;;6.60;99.90;;;;;;5045279;28;20042;-41
2022/11/13 04:08:29;;;;;;;8.90;5.82;;;6.60;99.90;;;;;;5042930;28;20945;-43
2022/11/13 04:11:03;;;;;;;8.90;5.55;;;6.60;99.90;;;;;;5046675;28;20491;-42
2022/11/13 04:13:29;;;;;;;9.63;6.18;;;6.60;99.90;;;;;;5050165;28;20487;-43
2022/11/13 04:15:55;;;;;;;11.48;6.40;;;6.50;99.90;;;;;;5052558;28;20048;-43
2022/11/13 04:18:20;;;;;;;10.57;5.20;;;6.50;99.90;;;;;;5050325;28;20035;-45
2022/11/13 04:20:46;;;;;;;10.57;6.65;;;6.50;99.90;;;;;;5049289;28;20087;-46
2022/11/13 04:23:14;;;;;;;9.98;6.50;;;6.50;99.90;;;;;;5050688;28;20045;-47
2022/11/13 04:25:40;;;;;;;11.68;5.97;;;6.50;99.90;;;;;;5046531;28;20052;-46
2022/11/13 04:28:05;;;;;;;9.38;5.50;;;6.40;99.90;;;;;;5050396;28;20053;-46
2022/11/13 04:30:31;;;;;;;9.45;5.47;;;6.40;99.90;;;;;;5050464;28;20413;-43
2022/11/13 04:32:57;;;;;;;7.97;4.90;;;6.40;99.90;;;;;;5043380;28;20494;-43
2022/11/13 04:35:22;;;;;;;10.52;5.88;;;6.50;99.90;;;;;;5046441;28;20110;-43
2022/11/13 04:37:48;;;;;;;9.82;6.15;;;6.40;99.90;;;;;;5047473;28;20768;-39
2022/11/13 04:40:14;;;;;;;8.82;5.18;;;6.40;99.90;;;;;;5047756;28;20090;-42
2022/11/13 04:42:49;;;;;;;9.60;5.82;;;6.40;99.90;;;;;;5047179;28;20047;-40
2022/11/13 04:45:23;;;;;;;7.32;4.72;;;6.40;99.90;;;;;;5039250;28;20043;-43
2022/11/13 04:47:49;;;;;;;11.25;7.07;;;6.40;99.90;;;;;;5048675;28;20083;-47
2022/11/13 04:50:15;;;;;;;8.43;5.20;;;6.40;99.90;;;;;;5047705;28;20060;-42
2022/11/13 04:52:42;;;;;;;9.60;5.60;;;6.40;99.90;;;;;;5045652;28;20033;-43
2022/11/13 04:55:08;;;;;;;8.23;5.63;;;6.40;99.90;;;;;;5046130;28;20075;-47
2022/11/13 04:57:34;;;;;;;11.18;5.70;;;6.40;99.90;;;;;;5042853;28;20048;-47
2022/11/13 05:00:00;;;;;;;10.13;6.18;;;6.40;99.90;;;;;;5043980;28;20037;-45
2022/11/13 05:02:26;;;;;;;10.48;6.20;;;6.30;99.90;;;;;;5045836;28;20032;-43
2022/11/13 05:04:51;;;;;;;8.15;5.32;;;6.30;99.90;;;;;;5037903;28;20037;-43
2022/11/13 05:07:17;;;;;;;8.88;5.20;;;6.30;99.90;;;;;;5046541;28;20082;-47
2022/11/13 05:09:43;;;;;;;9.13;5.55;;;6.30;99.90;;;;;;5049112;28;20452;-45
2022/11/13 05:12:09;;;;;;;9.68;5.75;;;6.20;99.90;;;;;;5048904;28;20034;-43
2022/11/13 05:14:38;;;;;;;9.15;5.00;;;6.20;99.90;;;;;;5047690;28;20099;-44
2022/11/13 05:17:05;;;;;;;9.15;5.80;;;6.20;99.90;;;;;;5044803;28;20033;-45
2022/11/13 05:19:32;;;;;;;10.68;6.40;;;6.20;99.90;;;;;;5040371;28;20421;-45
2022/11/13 05:21:58;;;;;;;10.52;6.30;;;6.20;99.90;;;;;;5040003;28;20086;-43
2022/11/13 05:24:24;;;;;;;12.25;6.60;;;6.20;99.90;;;;;;5043709;28;20090;-42
2022/11/13 05:26:50;;;;;;;9.48;5.53;;;6.10;99.90;;;;;;5046845;28;20040;-45
2022/11/13 05:29:17;;;;;;;8.63;5.53;;;6.10;99.90;;;;;;5046482;28;20056;-48
2022/11/13 05:31:43;;;;;;;9.07;5.53;;;6.10;99.90;;;;;;5042451;28;20048;-45
2022/11/13 05:34:09;;;;;;;9.95;5.45;;;6.10;99.90;;;;;;5047297;28;20086;-42
2022/11/13 05:36:34;;;;;;;11.50;5.30;;;6.10;99.90;;;;;;5042993;28;20041;-42
2022/11/13 05:39:00;;;;;;;8.85;5.68;;;6.00;99.90;;;;;;5044641;28;20033;-46
2022/11/13 05:41:26;;;;;;;10.02;5.20;;;6.10;99.90;;;;;;5043857;28;20037;-44
2022/11/13 05:43:52;;;;;;;11.82;5.35;;;6.00;99.90;;;;;;5047620;28;20112;-43
2022/11/13 05:46:31;;;;;;;9.85;6.20;;;6.10;99.90;;;;;;5045807;28;20097;-44
2022/11/13 05:49:00;;;;;;;10.23;6.03;;;6.10;99.90;;;;;;5043299;28;20041;-42
2022/11/13 05:51:28;;;;;;;10.73;6.50;;;6.10;99.90;;;;;;5043905;28;20099;-44
2022/11/13 05:53:54;;;;;;;9.57;5.80;;;6.10;99.90;;;;;;5043881;28;20124;-43
2022/11/13 05:56:29;;;;;;;8.60;4.90;;;6.10;99.90;;;;;;5046132;28;20158;-45
2022/11/13 05:58:55;;;;;;;7.55;4.80;;;6.10;99.90;;;;;;5040025;28;20638;-42
2022/11/13 06:01:23;;;;;;;6.60;4.22;;;6.10;99.90;;;;;;5043773;28;20068;-43
2022/11/13 06:03:50;;;;;;;8.07;5.30;;;6.10;99.90;;;;;;5042304;28;20112;-43
2022/11/13 06:06:18;;;;;;;8.93;4.93;;;6.00;99.90;;;;;;5043383;28;20083;-44
2022/11/13 06:08:45;;;;;;;10.32;5.03;;;6.00;99.90;;;;;;5045765;28;20043;-46
2022/11/13 06:11:13;;;;;;;9.35;5.55;;;6.00;99.90;;;;;;5039596;28;20041;-43
2022/11/13 06:13:39;;;;;;;9.88;5.50;;;5.90;99.90;;;;;;5039573;28;20080;-44
2022/11/13 06:16:11;;;;;;;8.15;5.20;;;5.90;99.90;;;;;;5042531;28;20041;-41
2022/11/13 06:18:40;;;;;;;9.27;5.78;;;5.90;99.90;;;;;;5045398;28;20028;-39
2022/11/13 06:21:12;;;;;;;10.00;6.72;;;5.90;99.90;;;;;;5043205;28;20052;-46
2022/11/13 06:23:39;;;;;;;8.17;4.97;;;5.90;99.90;;;;;;5040242;28;20041;-45
2022/11/13 06:26:07;;;;;;;8.70;5.30;;;5.80;99.90;;;;;;5040345;28;20318;-44
2022/11/13 06:28:33;;;;;;;8.50;5.35;;;5.80;99.90;;;;;;5040235;28;20056;-46
2022/11/13 06:31:08;;;;;;;8.88;5.07;;;5.70;99.90;;;;;;5041455;28;20560;-45
2022/11/13 06:33:34;;;;;;;9.02;5.68;;;5.70;99.90;;;;;;5037825;28;20077;-44
2022/11/13 06:36:02;;;;;;;8.90;5.63;;;5.70;99.90;;;;;;5047751;28;20052;-47
2022/11/13 06:38:35;;;;;;;8.43;4.95;;;5.60;99.90;;;;;;5039346;28;20397;-46
2022/11/13 06:41:02;;;;;;;9.77;5.60;;;5.60;99.90;;;;;;5042833;28;20107;-48
2022/11/13 06:43:29;;;;;;;9.73;6.13;;;5.60;99.90;;;;;;5040830;28;20120;-48
2022/11/13 06:45:55;;;;;;;12.43;6.13;;;5.60;99.90;;;;;;5047323;28;20044;-40
2022/11/13 06:48:21;;;;;;;10.73;5.22;;;5.60;99.90;;;;;;5045807;28;20513;-43
2022/11/13 06:50:47;;;;;;;7.45;4.97;;;5.60;99.90;;;;;;5045229;28;20144;-46
2022/11/13 06:53:14;;;;;;;9.77;5.60;;;5.60;99.90;;;;;;5040247;28;20037;-47
2022/11/13 06:55:48;;;;;;;9.38;5.82;;;5.60;99.90;;;;;;5046384;28;20037;-40
2022/11/13 06:58:14;;;;;;;10.48;6.15;;;5.50;99.90;;;;;;5040667;28;20037;-43
2022/11/13 07:00:41;;;;;;;10.65;5.65;;;5.50;99.90;;;;;;5048073;28;20038;-44
2022/11/13 07:03:21;;;;;;;9.88;6.38;;;5.60;99.90;;;;;;5041294;28;20049;-42
2022/11/13 07:05:47;;;;;;;9.68;6.28;;;5.50;99.90;;;;;;5038867;28;20064;-42
2022/11/13 07:08:13;;;;;;;9.15;6.10;;;5.60;99.90;;;;;;5042442;28;20041;-44
2022/11/13 07:10:40;;;;;;;8.77;5.57;;;5.60;99.90;;;;;;5044852;28;20041;-41
2022/11/13 07:13:05;;;;;;;11.73;6.18;;;5.60;99.90;;;;;;5041446;28;20087;-44
2022/11/13 07:15:35;;;;;;;13.77;6.13;;;5.60;99.90;;;;;;5041175;28;20036;-40
2022/11/13 07:18:02;;;;;;;11.52;6.47;;;5.60;99.90;;;;;;5042075;28;20132;-46
2022/11/13 07:20:28;;;;;;;11.05;5.93;;;5.60;99.90;;;;;;5045045;28;20048;-48
2022/11/13 07:22:55;;;;;;;10.60;6.90;;;5.60;99.90;;;;;;5040576;28;20433;-45
2022/11/13 07:25:21;;;;;;;9.68;5.97;;;5.60;99.90;;;;;;5036460;28;20593;-45
2022/11/13 07:27:47;;;;;;;10.02;6.13;;;5.60;99.90;;;;;;5039083;28;20048;-45
2022/11/13 07:30:13;;;;;;;8.10;5.13;;;5.70;99.90;;;;;;5038429;28;20056;-50
2022/11/13 07:32:38;;;;;;;10.45;5.78;;;5.70;99.90;;;;;;5044262;28;20039;-45
2022/11/13 07:35:04;;;;;;;9.85;5.78;;;5.70;99.90;;;;;;5039612;28;20436;-40
2022/11/13 07:37:30;;;;;;;8.68;5.80;;;5.70;99.90;;;;;;5043851;28;20115;-48
2022/11/13 07:39:55;;;;;;;9.32;5.55;;;5.70;99.90;;;;;;5042047;28;20519;-43
2022/11/13 07:42:21;;;;;;;8.40;5.55;;;5.80;99.90;;;;;;5041575;28;20061;-44
2022/11/13 07:44:47;;;;;;;8.93;5.15;;;5.80;99.90;;;;;;5043969;28;20475;-48
2022/11/13 07:47:12;;;;;;;8.75;5.53;;;5.80;99.90;;;;;;5043598;28;20117;-47
2022/11/13 07:49:38;;;;;;;8.60;5.18;;;5.90;99.90;;;;;;5040376;28;20037;-44
2022/11/13 07:52:04;;;;;;;8.73;5.50;;;5.90;99.90;;;;;;5030393;28;20037;-44
2022/11/13 07:54:29;;;;;;;12.18;7.43;;;5.90;99.90;;;;;;5037909;28;20033;-45
2022/11/13 07:56:55;;;;;;;11.23;6.80;;;6.00;99.90;;;;;;5040400;28;20039;-45
2022/11/13 07:59:21;;;;;;;10.32;6.88;;;6.00;99.90;;;;;;5035253;28;20056;-46
2022/11/13 08:01:46;;;;;;;11.65;7.05;;;6.10;99.90;;;;;;5038139;28;20037;-43
2022/11/13 08:04:12;;;;;;;12.45;6.78;;;6.10;99.90;;;;;;5045216;28;20060;-40
2022/11/13 08:06:38;;;;;;;10.35;6.40;;;6.20;99.90;;;;;;5038180;28;20056;-45
2022/11/13 08:09:04;;;;;;;10.85;6.68;;;6.20;99.90;;;;;;5044747;28;20044;-44
2022/11/13 08:11:29;;;;;;;11.30;7.03;;;6.30;99.90;;;;;;5040355;28;20041;-44
2022/11/13 08:13:55;;;;;;;11.90;7.50;;;6.40;99.90;;;;;;5038475;28;20379;-43
2022/11/13 08:16:22;;;;;;;11.55;7.25;;;6.50;99.90;;;;;;5036031;28;20044;-43
2022/11/13 08:18:48;;;;;;;11.25;6.78;;;6.60;99.90;;;;;;5041457;28;20242;-44
2022/11/13 08:21:14;;;;;;;11.90;7.57;;;6.70;99.90;;;;;;5041915;28;20033;-47
2022/11/13 08:23:41;;;;;;;12.93;7.32;;;6.80;99.90;;;;;;5039920;28;20396;-44
2022/11/13 08:26:08;;;;;;;8.85;5.78;;;6.80;99.90;;;;;;5047813;28;20510;-43
2022/11/13 08:28:34;;;;;;;11.70;7.28;;;6.90;99.90;;;;;;5043473;28;20571;-43
2022/11/13 08:31:00;;;;;;;11.30;6.93;;;7.00;99.90;;;;;;5037737;28;20179;-43
2022/11/13 08:33:27;;;;;;;9.77;6.32;;;7.10;99.90;;;;;;5033587;28;21516;-50
2022/11/13 08:35:54;;;;;;;10.57;6.50;;;7.10;99.90;;;;;;5040156;28;20047;-43
2022/11/13 08:38:20;;;;;;;10.35;7.05;;;7.20;99.90;;;;;;5043097;28;20028;-42
2022/11/13 08:40:47;;;;;;;11.55;6.70;;;7.30;99.90;;;;;;5041663;28;20049;-46
2022/11/13 08:43:12;;;;;;;10.52;6.22;;;7.40;99.90;;;;;;5043022;28;20037;-47
2022/11/13 08:45:38;;;;;;;9.98;6.45;;;7.40;99.90;;;;;;5043635;28;20033;-41
2022/11/13 08:48:04;;;;;;;9.93;6.22;;;7.50;99.90;;;;;;5048006;28;20052;-46
2022/11/13 08:50:32;;;;;;;8.48;5.82;;;7.50;99.90;;;;;;5039259;28;20145;-42
2022/11/13 08:52:59;;;;;;;10.88;6.85;;;7.60;99.90;;;;;;5040386;28;20099;-47
2022/11/13 08:55:26;;;;;;;10.48;6.18;;;7.70;99.90;;;;;;5040214;28;20051;-40
2022/11/13 08:57:53;;;;;;;8.85;5.72;;;7.80;99.90;;;;;;5040756;28;20049;-48
2022/11/13 09:00:19;;;;;;;10.35;6.32;;;7.80;99.90;;;;;;5055793;28;20119;-43
2022/11/13 09:02:45;;;;;;;9.73;5.68;;;7.90;99.90;;;;;;5035038;28;20048;-46
2022/11/13 09:05:11;;;;;;;8.57;5.57;;;8.00;99.90;;;;;;5037352;28;20037;-45
2022/11/13 09:07:37;;;;;;;8.88;5.75;;;8.00;99.90;;;;;;5033761;28;20674;-40
2022/11/13 09:10:03;;;;;;;10.30;5.50;;;8.10;99.90;;;;;;5036175;28;20506;-40
2022/11/13 09:12:28;;;;;;;8.40;5.63;;;8.20;99.90;;;;;;5038910;28;20076;-47
2022/11/13 09:14:54;;;;;;;9.00;5.25;;;8.20;99.90;;;;;;5039243;28;20081;-46
2022/11/13 09:17:20;;;;;;;8.43;4.93;;;8.30;99.90;;;;;;5038663;28;20709;-40
2022/11/13 09:19:46;;;;;;;9.07;5.22;;;8.40;99.90;;;;;;5035629;28;20534;-43
2022/11/13 09:22:12;;;;;;;8.93;5.63;;;8.40;99.90;;;;;;5043687;28;20055;-41
2022/11/13 09:24:37;;;;;;;7.85;5.05;;;8.60;99.90;;;;;;5040541;28;20041;-47
2022/11/13 09:27:03;;;;;;;7.10;4.63;;;8.70;99.90;;;;;;5045194;28;20116;-44
2022/11/13 09:29:29;;;;;;;6.63;4.47;;;8.80;99.90;;;;;;5036433;28;20483;-46
2022/11/13 09:31:55;;;;;;;8.90;4.85;;;8.80;99.90;;;;;;5044962;28;20045;-43
2022/11/13 09:34:21;;;;;;;9.02;5.47;;;8.80;99.90;;;;;;5038201;28;20033;-43
2022/11/13 09:36:47;;;;;;;6.05;3.88;;;8.90;99.90;;;;;;5039016;28;20080;-41
2022/11/13 09:39:13;;;;;;;7.88;5.13;;;8.90;99.90;;;;;;5040420;28;20069;-42
2022/11/13 09:41:45;;;;;;;8.75;4.60;;;9.00;99.90;;;;;;5031259;28;20041;-40
2022/11/13 09:44:26;;;;;;;8.82;4.88;;;9.10;99.90;;;;;;5032787;28;20044;-45
2022/11/13 09:47:07;;;;;;;8.32;4.68;;;9.20;99.90;;;;;;5038171;28;20044;-40
2022/11/13 09:50:02;;;;;;;8.00;5.30;;;9.30;99.90;;;;;;5038453;28;20533;-43
2022/11/13 09:52:40;;;;;;;6.47;4.25;;;9.40;99.90;;;;;;5034113;28;20085;-42
2022/11/13 09:55:11;;;;;;;9.20;4.70;;;9.50;99.90;;;;;;5039615;28;20041;-41
2022/11/13 09:57:42;;;;;;;10.63;5.25;;;9.60;99.90;;;;;;5036447;28;20045;-47
2022/11/13 10:00:28;;;;;;;6.35;4.38;;;9.60;99.90;;;;;;5036416;28;20045;-45
2022/11/13 10:03:08;;;;;;;7.82;4.20;;;9.70;99.90;;;;;;5036721;28;20036;-42
2022/11/13 10:05:42;;;;;;;9.32;4.97;;;9.80;99.90;;;;;;5042536;28;20041;-43
2022/11/13 10:08:34;;;;;;;7.57;4.43;;;9.90;99.90;;;;;;5039915;28;20098;-43
2022/11/13 10:11:28;;;;;;;7.57;4.97;;;10.00;99.90;;;;;;5040662;28;20494;-48
2022/11/13 10:13:58;;;;;;;7.63;4.75;;;10.10;99.90;;;;;;5039323;28;20052;-45
2022/11/13 10:16:41;;;;;;;7.93;4.38;;;10.20;99.90;;;;;;5033202;28;20418;-43
2022/11/13 10:19:17;;;;;;;7.70;4.78;;;10.30;99.90;;;;;;5035785;28;20375;-45
2022/11/13 10:22:02;;;;;;;8.80;4.57;;;10.30;99.90;;;;;;5039179;28;20040;-42
2022/11/13 10:24:37;;;;;;;8.95;4.57;;;10.40;99.90;;;;;;5027801;28;20048;-42
2022/11/13 10:27:08;;;;;;;7.20;4.75;;;10.50;99.90;;;;;;5033019;28;20056;-46
2022/11/13 10:29:34;;;;;;;6.47;4.60;;;10.60;99.90;;;;;;5039676;28;20511;-47
2022/11/13 10:32:16;;;;;;;6.95;4.38;;;10.70;99.90;;;;;;5041652;28;20098;-39
2022/11/13 10:34:47;;;;;;;6.72;4.05;;;10.80;99.90;;;;;;5040858;28;20038;-44
2022/11/13 10:37:31;;;;;;;8.95;4.57;;;10.90;99.90;;;;;;5045174;28;20053;-42
2022/11/13 10:39:56;;;;;;;6.97;4.10;;;11.00;99.90;;;;;;5034692;28;20468;-41
2022/11/13 10:42:26;;;;;;;6.35;4.10;;;11.10;99.90;;;;;;5041655;28;20120;-44
2022/11/13 10:44:55;;;;;;;7.47;4.28;;;11.20;99.90;;;;;;5035917;28;20052;-41
2022/11/13 10:47:23;;;;;;;8.30;4.63;;;11.30;99.90;;;;;;5036221;28;20037;-49
2022/11/13 10:49:49;;;;;;;7.93;4.40;;;11.40;99.90;;;;;;5035730;28;20101;-44
2022/11/13 10:52:20;;;;;;;7.78;3.90;;;11.60;99.90;;;;;;5036539;28;20509;-42
2022/11/13 10:54:46;;;;;;;8.05;4.35;;;11.90;99.90;;;;;;5031448;28;22982;-43
2022/11/13 10:57:29;;;;;;;6.47;4.32;;;12.30;99.10;;;;;;5041063;28;20490;-43
2022/11/13 10:59:55;;;;;;;;;;;12.90;97.50;;;;;;5045436;28;20045;-45
2022/11/13 11:02:23;;;;;;;6.28;4.15;;;13.50;95.90;;;;;;5036440;28;19921;-41
2022/11/13 11:05:14;;;;;;;7.05;4.13;;;13.80;95.50;;;;;;5039043;28;20094;-39
2022/11/13 11:07:40;;;;;;;5.65;3.42;;;14.20;93.50;;;;;;5035057;28;20063;-41
2022/11/13 11:10:30;;;;;;;6.40;4.18;;;14.50;92.40;;;;;;5041933;28;20474;-42
2022/11/13 11:13:10;;;;;;;6.57;4.20;;;14.90;91.50;;;;;;5044107;28;20044;-44
2022/11/13 11:15:53;;;;;;;7.05;3.88;;;15.10;90.70;;;;;;5036234;28;20033;-43
2022/11/13 11:18:24;;;;;;;7.88;3.95;;;15.60;89.70;;;;;;5034554;28;20118;-41
2022/11/13 11:20:52;;;;;;;6.63;4.53;;;15.90;86.20;;;;;;5034074;28;20128;-44
2022/11/13 11:23:18;;;;;;;7.25;3.80;;;16.00;85.50;;;;;;5035851;28;20598;-40
2022/11/13 11:25:56;;;;;;;8.13;4.00;;;16.20;85.10;;;;;;5030015;28;20045;-43
2022/11/13 11:29:02;;;;;;;7.65;4.25;;;16.50;82.10;;;;;;5030727;28;20057;-42
2022/11/13 11:31:31;;;;;;;5.25;3.70;;;17.00;78.20;;;;;;5046503;28;20128;-41
2022/11/13 11:34:11;;;;;;;7.07;4.22;;;17.30;79.50;;;;;;5045233;28;20116;-42
2022/11/13 11:36:53;;;;;;;6.20;3.88;;;17.40;78.30;;;;;;5042162;28;20033;-43
2022/11/13 11:39:19;;;;;;;5.18;3.50;;;17.80;77.50;;;;;;5038981;28;20073;-40
2022/11/13 11:42:00;;;;;;;6.03;3.53;;;18.20;78.00;;;;;;5041881;28;20080;-45
2022/11/13 11:44:54;;;;;;;7.40;3.80;;;18.50;73.00;;;;;;5033900;28;20037;-40
2022/11/13 11:47:20;;;;;;;9.07;3.92;;;18.70;73.10;;;;;;5038274;28;20056;-42
2022/11/13 11:49:46;;;;;;;5.78;3.88;;;19.00;73.20;;;;;;5044130;28;20037;-41
2022/11/13 11:52:29;;;;;;;5.38;3.53;;;19.20;71.70;;;;;;5043669;28;20117;-41
2022/11/13 11:55:28;;;;;;;5.90;3.45;;;19.50;68.30;;;;;;5038014;28;20051;-42
2022/11/13 11:58:02;;;;;;;5.55;3.28;;;19.70;66.70;;;;;;5039510;28;20037;-42
2022/11/13 12:00:31;;;;;;;5.60;3.38;;;20.00;67.30;;;;;;5040840;28;20520;-41
2022/11/13 12:03:14;;;;;;;4.95;3.47;;;20.30;68.00;;;;;;5041678;28;20512;-43
2022/11/13 12:06:02;;;;;;;4.97;3.40;;;20.60;71.20;;;;;;5042981;28;20411;-39
2022/11/13 12:08:35;;;;;;;5.25;3.50;;;20.80;76.00;;;;;;5035909;28;20052;-42
2022/11/13 12:11:22;;;;;;;6.93;3.60;;;20.70;78.70;;;;;;5040877;28;20529;-41
2022/11/13 12:14:03;;;;;;;4.95;3.45;;;20.70;79.60;;;;;;5038753;28;20398;-43
2022/11/13 12:16:56;;;;;;;5.72;3.20;;;21.00;79.10;;;;;;5040282;28;20041;-42
2022/11/13 12:19:41;;;;;;;5.40;3.20;;;;;;;;;;5040368;28;20036;-41
2022/11/13 12:22:25;;;;;;;5.15;3.70;;;21.60;75.40;;;;;;5045169;28;20635;-43
2022/11/13 12:25:04;;;;;;;5.25;3.05;;;21.80;86.70;;;;;;5039308;28;20079;-42
2022/11/13 12:27:46;;;;;;;5.10;3.38;;;22.00;82.20;;;;;;5040223;28;20048;-44
2022/11/13 12:30:17;;;;;;;3.88;2.45;;;22.20;65.90;;;;;;5043015;28;20136;-42
2022/11/13 12:33:40;;;;;;;4.47;2.77;;;22.20;62.40;;;;;;5039612;28;20660;-42
2022/11/13 12:36:09;;;;;;;4.30;2.30;;;22.30;58.30;;;;;;5005433;28;20048;-40
2022/11/13 12:38:50;;;;;;;26.27;4.70;;;22.50;59.50;;;;;;5005604;28;20661;-43
2022/11/13 12:41:44;;;;;;;5.25;3.15;;;22.70;55.30;;;;;;5026358;28;20120;-42
2022/11/13 12:44:20;;;;;;;4.45;2.90;;;22.80;52.90;;;;;;5032984;28;20053;-41
2022/11/13 12:46:48;;;;;;;4.60;3.15;;;22.90;55.00;;;;;;5042027;28;20044;-43
2022/11/13 12:49:35;;;;;;;4.47;2.95;;;23.00;54.10;;;;;;5036259;28;20045;-41
2022/11/13 12:52:03;;;;;;;4.80;3.17;;;22.90;51.70;;;;;;5032059;28;20045;-41
2022/11/13 12:54:30;;;;;;;4.43;3.00;;;22.20;54.30;;;;;;5038064;28;20048;-40
2022/11/13 12:57:11;;;;;;;5.28;3.40;;;21.30;55.90;;;;;;5042263;28;20048;-39
2022/11/13 12:59:44;;;;;;;4.93;3.10;;;20.50;55.50;;;;;;5034996;28;20037;-41
2022/11/13 13:02:13;;;;;;;4.47;3.20;;;20.00;58.60;;;;;;5034965;28;20091;-40
2022/11/13 13:04:53;;;;;;;3.92;2.70;;;19.80;58.90;;;;;;5041241;28;20067;-41